Time;durP1;ratioP1;P1;durP2;ratioP2;P2;SDS_P1;SDS_P2;PMS_P1;PMS_P2;Temp;Humidity;BMP_temperature;BMP_pressure;BME280_temperature;BME280_humidity;BME280_pressure;Samples;Min_cycle;Max_cycle;Signal;HPM_P1;HPM_P2
2023/06/27 00:00:45;;;;;;;;;;;;;;;20.59;48.95;98613.34;7372255;19;19923;-71
2023/06/27 00:03:12;;;;;;;;;;;;;;;20.52;47.91;98620.56;7376247;19;19915;-70
2023/06/27 00:05:40;;;;;;;;;;;;;;;20.53;47.66;98618.72;7367596;19;19914;-71
2023/06/27 00:08:07;;;;;;;;;;;;;;;20.68;48.49;98626.53;7374168;19;19918;-70
2023/06/27 00:10:34;;;;;;;;;;;;;;;20.63;48.26;98621.78;7373869;19;19919;-70
2023/06/27 00:13:01;;;;;;;;;;;;;;;20.61;48.71;98627.38;7376185;19;19930;-71
2023/06/27 00:15:34;;;;;;;;;;;;;;;20.79;48.17;98623.16;7369838;19;19966;-70
2023/06/27 00:18:08;;;;;;;;;;;;;;;20.79;46.71;98612.41;7376880;19;20336;-70
2023/06/27 00:20:35;;;;;;;;;;;;;;;20.72;46.98;98619.66;7371576;19;19927;-71
2023/06/27 00:23:17;;;;;;;;;;;;;;;20.60;48.33;98624.91;7372530;19;19918;-71
2023/06/27 00:25:44;;;;;;;;;;;;;;;20.53;47.95;98624.91;7367903;19;19933;-70
2023/06/27 00:28:12;;;;;;;;;;;;;;;20.55;47.18;98622.03;7373829;19;19919;-71
2023/06/27 00:30:39;;;;;;;;;;;;;;;20.50;47.85;98624.50;7375664;19;19919;-71
2023/06/27 00:33:05;;;;;;;;;;;;;;;20.53;48.24;98627.59;7372846;19;19943;-71
2023/06/27 00:35:32;;;;;;;;;;;;;;;20.53;48.50;98626.78;7368121;19;19939;-71
2023/06/27 00:38:00;;;;;;;;;;;;;;;20.46;48.18;98634.88;7374533;19;19918;-71
2023/06/27 00:40:29;;;;;;;;;;;;;;;20.37;48.41;98630.75;7371125;19;19948;-70
2023/06/27 00:42:56;;;;;;;;;;;;;;;20.44;48.58;98642.31;7371085;19;20273;-70
2023/06/27 00:45:23;;;;;;;;;;;;;;;20.44;48.48;98634.25;7369131;19;19915;-71
2023/06/27 00:47:53;;;;;;;;;;;;;;;20.45;47.64;98638.59;7372902;19;19930;-71
2023/06/27 00:50:20;;;;;;;;;;;;;;;20.38;48.72;98632.44;7375665;19;19922;-71
2023/06/27 00:52:47;;;;;;;;;;;;;;;20.24;48.51;98625.44;7369372;19;19922;-71
2023/06/27 00:55:14;;;;;;;;;;;;;;;20.19;50.08;98642.19;7362584;19;19926;-71
2023/06/27 00:57:41;;;;;;;;;;;;;;;20.25;49.67;98633.31;7371019;19;19926;-71
2023/06/27 01:00:13;;;;;;;;;;;;;;;20.21;49.73;98647.34;7372239;19;19929;-71
2023/06/27 01:02:40;;;;;;;;;;;;;;;20.17;49.96;98645.09;7371423;19;19926;-71
2023/06/27 01:05:07;;;;;;;;;;;;;;;20.16;50.06;98643.44;7369842;19;20285;-70
2023/06/27 01:08:00;;;;;;;;;;;;;;;20.10;48.89;98636.22;7366786;19;20024;-70
2023/06/27 01:10:30;;;;;;;;;;;;;;;20.01;50.00;98637.50;7364335;19;19929;-70
2023/06/27 01:12:56;;;;;;;;;;;;;;;20.04;49.83;98644.31;7372420;19;19931;-70
2023/06/27 01:15:23;;;;;;;;;;;;;;;19.89;49.30;98648.03;7368019;19;19954;-72
2023/06/27 01:17:49;;;;;;;;;;;;;;;19.91;50.26;98647.84;7368914;19;20300;-71
2023/06/27 01:20:16;;;;;;;;;;;;;;;20.03;50.83;98648.00;7373084;19;19945;-72
2023/06/27 01:22:44;;;;;;;;;;;;;;;19.94;49.80;98647.41;7370704;19;20344;-73
2023/06/27 01:25:11;;;;;;;;;;;;;;;20.04;50.01;98652.38;7369683;19;19918;-70
2023/06/27 01:27:38;;;;;;;;;;;;;;;20.06;48.86;98647.59;7370470;19;19919;-69
2023/06/27 01:30:05;;;;;;;;;;;;;;;20.08;47.70;98643.66;7371414;19;20301;-70
2023/06/27 01:32:39;;;;;;;;;;;;;;;20.05;47.72;98649.47;7366795;19;19937;-72
2023/06/27 01:35:06;;;;;;;;;;;;;;;19.90;49.62;98646.19;7371177;19;19945;-70
2023/06/27 01:37:36;;;;;;;;;;;;;;;19.95;49.41;98639.13;7371048;19;19922;-70
2023/06/27 01:40:07;;;;;;;;;;;;;;;19.87;48.67;98643.91;7371306;19;19952;-72
2023/06/27 01:42:35;;;;;;;;;;;;;;;19.80;50.39;98645.78;7369542;19;19929;-73
2023/06/27 01:45:02;;;;;;;;;;;;;;;19.76;50.41;98648.06;7368809;19;19926;-72
2023/06/27 01:47:29;;;;;;;;;;;;;;;19.68;50.16;98648.28;7367115;19;20258;-72
2023/06/27 01:49:56;;;;;;;;;;;;;;;19.66;50.85;98644.94;7371125;19;19947;-70
2023/06/27 01:52:23;;;;;;;;;;;;;;;19.61;50.92;98642.03;7372014;19;19922;-72
2023/06/27 01:54:50;;;;;;;;;;;;;;;19.62;50.96;98647.22;7369889;19;20028;-70
2023/06/27 01:57:16;;;;;;;;;;;;;;;19.57;50.82;98644.34;7370350;19;19937;-70
2023/06/27 01:59:43;;;;;;;;;;;;;;;19.50;51.72;98640.81;7370320;19;19923;-70
2023/06/27 02:02:10;;;;;;;;;;;;;;;19.51;50.76;98645.16;7373355;19;19914;-69
2023/06/27 02:04:38;;;;;;;;;;;;;;;19.51;51.53;98651.34;7366730;19;19931;-71
2023/06/27 02:07:05;;;;;;;;;;;;;;;19.56;50.29;98648.03;7366496;19;19965;-72
2023/06/27 02:09:33;;;;;;;;;;;;;;;19.42;51.14;98644.53;7372058;19;19952;-69
2023/06/27 02:11:59;;;;;;;;;;;;;;;19.38;51.01;98651.34;7374236;19;19958;-71
2023/06/27 02:14:26;;;;;;;;;;;;;;;19.33;51.68;98653.81;7368725;19;19919;-70
2023/06/27 02:16:53;;;;;;;;;;;;;;;19.36;50.80;98649.91;7366746;19;19942;-71
2023/06/27 02:19:19;;;;;;;;;;;;;;;19.28;51.55;98649.06;7370475;19;20281;-73
2023/06/27 02:21:47;;;;;;;;;;;;;;;19.41;51.07;98644.75;7367875;19;20466;-71
2023/06/27 02:24:14;;;;;;;;;;;;;;;19.45;50.98;98643.28;7370919;19;19929;-73
2023/06/27 02:26:43;;;;;;;;;;;;;;;19.57;50.40;98641.66;7370698;19;19919;-69
2023/06/27 02:29:11;;;;;;;;;;;;;;;19.56;50.96;98631.94;7372395;19;19919;-70
2023/06/27 02:31:38;;;;;;;;;;;;;;;19.59;50.54;98639.59;7373043;19;19922;-70
2023/06/27 02:34:05;;;;;;;;;;;;;;;19.57;51.31;98635.47;7364747;19;20573;-69
2023/06/27 02:36:31;;;;;;;;;;;;;;;19.59;51.21;98628.84;7364128;19;20260;-69
2023/06/27 02:39:01;;;;;;;;;;;;;;;19.73;50.28;98635.88;7368839;19;19933;-69
2023/06/27 02:41:28;;;;;;;;;;;;;;;19.72;49.52;98628.03;7369450;19;19922;-72
2023/06/27 02:43:55;;;;;;;;;;;;;;;19.84;49.39;98637.09;7372897;19;19943;-71
2023/06/27 02:46:21;;;;;;;;;;;;;;;19.78;49.42;98637.13;7360438;19;19926;-72
2023/06/27 02:48:48;;;;;;;;;;;;;;;19.77;50.36;98628.22;7369224;19;19923;-71
2023/06/27 02:51:15;;;;;;;;;;;;;;;19.87;49.90;98641.22;7368449;19;20264;-69
2023/06/27 02:53:41;;;;;;;;;;;;;;;19.86;49.19;98640.41;7368370;19;19925;-70
2023/06/27 02:56:08;;;;;;;;;;;;;;;19.86;49.49;98640.41;7364138;19;19990;-72
2023/06/27 02:58:36;;;;;;;;;;;;;;;19.81;48.62;98640.22;7364206;19;19922;-72
2023/06/27 03:01:06;;;;;;;;;;;;;;;19.76;49.65;98637.31;7368975;19;19922;-71
2023/06/27 03:03:36;;;;;;;;;;;;;;;19.77;48.68;98641.66;7369214;19;19956;-71
2023/06/27 03:06:08;;;;;;;;;;;;;;;19.64;49.01;98637.13;7367283;19;19944;-70
2023/06/27 03:08:37;;;;;;;;;;;;;;;19.70;49.25;98640.84;7363331;19;21025;-71
2023/06/27 03:11:05;;;;;;;;;;;;;;;19.69;49.16;98637.31;7365934;19;20268;-71
2023/06/27 03:13:32;;;;;;;;;;;;;;;19.68;49.20;98645.59;7364840;19;20254;-73
2023/06/27 03:16:00;;;;;;;;;;;;;;;19.63;48.56;98643.50;7363041;19;19922;-70
2023/06/27 03:18:28;;;;;;;;;;;;;;;19.57;50.59;98644.34;7373902;19;19927;-71
2023/06/27 03:20:56;;;;;;;;;;;;;;;19.62;49.96;98644.53;7373079;19;19955;-71
2023/06/27 03:23:23;;;;;;;;;;;;;;;19.55;49.64;98642.88;7373829;19;19925;-70
2023/06/27 03:25:49;;;;;;;;;;;;;;;19.45;50.33;98648.66;7367917;19;20006;-72
2023/06/27 03:28:16;;;;;;;;;;;;;;;19.36;50.06;98644.53;7371745;19;20389;-71
2023/06/27 03:30:51;;;;;;;;;;;;;;;19.32;50.87;98644.09;7375198;19;19989;-70
2023/06/27 03:33:18;;;;;;;;;;;;;;;19.25;50.93;98648.66;7376123;19;20753;-69
2023/06/27 03:35:48;;;;;;;;;;;;;;;19.21;50.45;98642.88;7368292;19;19919;-71
2023/06/27 03:38:15;;;;;;;;;;;;;;;19.23;50.59;98642.66;7372529;19;19923;-70
2023/06/27 03:40:43;;;;;;;;;;;;;;;19.18;49.95;98643.28;7374605;19;20629;-69
2023/06/27 03:43:10;;;;;;;;;;;;;;;19.12;51.15;98660.19;7375486;19;19915;-70
2023/06/27 03:45:38;;;;;;;;;;;;;;;19.18;51.91;98654.00;7371890;19;19954;-71
2023/06/27 03:48:06;;;;;;;;;;;;;;;19.09;51.72;98663.28;7374591;19;19930;-69
2023/06/27 03:50:33;;;;;;;;;;;;;;;19.12;51.99;98652.16;7376836;19;19915;-72
2023/06/27 03:53:01;;;;;;;;;;;;;;;19.15;52.21;98651.72;7377717;19;19919;-71
2023/06/27 03:55:28;;;;;;;;;;;;;;;19.15;52.02;98661.63;7367587;19;20014;-70
2023/06/27 03:57:55;;;;;;;;;;;;;;;19.21;51.47;98664.31;7370285;19;19926;-72
2023/06/27 04:00:21;;;;;;;;;;;;;;;19.24;51.36;98665.75;7378315;19;19922;-72
2023/06/27 04:02:49;;;;;;;;;;;;;;;19.32;51.00;98656.69;7370957;19;20424;-73
2023/06/27 04:05:16;;;;;;;;;;;;;;;19.24;50.57;98660.41;7368140;19;19991;-71
2023/06/27 04:07:44;;;;;;;;;;;;;;;19.22;50.93;98657.94;7370730;19;20389;-72
2023/06/27 04:10:10;;;;;;;;;;;;;;;19.27;50.91;98657.31;7376468;19;19925;-71
2023/06/27 04:12:37;;;;;;;;;;;;;;;19.29;50.44;98655.25;7371756;19;20274;-72
2023/06/27 04:15:04;;;;;;;;;;;;;;;19.34;50.69;98651.97;7374265;19;20350;-72
2023/06/27 04:17:31;;;;;;;;;;;;;;;19.38;50.17;98659.41;7374480;19;19915;-71
2023/06/27 04:19:58;;;;;;;;;;;;;;;19.32;50.45;98652.16;7376500;19;19919;-71
2023/06/27 04:22:24;;;;;;;;;;;;;;;19.41;49.82;98661.66;7373652;19;20356;-70
2023/06/27 04:24:51;;;;;;;;;;;;;;;19.41;50.50;98667.03;7366866;19;19922;-71
2023/06/27 04:27:18;;;;;;;;;;;;;;;19.48;50.89;98661.66;7373690;19;19919;-71
2023/06/27 04:29:44;;;;;;;;;;;;;;;19.50;50.30;98664.97;7371896;19;19947;-73
2023/06/27 04:32:11;;;;;;;;;;;;;;;19.50;51.38;98667.66;7376507;19;19990;-70
2023/06/27 04:34:38;;;;;;;;;;;;;;;19.48;50.70;98670.56;7368853;19;19919;-69
2023/06/27 04:37:04;;;;;;;;;;;;;;;19.54;51.15;98671.59;7376121;19;19919;-69
2023/06/27 04:39:31;;;;;;;;;;;;;;;19.49;52.05;98674.06;7375824;19;19927;-69
2023/06/27 04:41:58;;;;;;;;;;;;;;;19.61;51.54;98682.31;7371491;19;19921;-70
2023/06/27 04:44:25;;;;;;;;;;;;;;;19.52;51.20;98676.31;7368101;19;20250;-69
2023/06/27 04:46:52;;;;;;;;;;;;;;;19.51;51.70;98674.69;7369836;19;19922;-69
2023/06/27 04:49:19;;;;;;;;;;;;;;;19.51;51.44;98670.13;7369063;19;19927;-69
2023/06/27 04:51:45;;;;;;;;;;;;;;;19.63;50.92;98673.00;7369669;19;19919;-70
2023/06/27 04:54:12;;;;;;;;;;;;;;;19.63;51.68;98683.75;7377008;19;19922;-69
2023/06/27 04:56:39;;;;;;;;;;;;;;;19.59;52.32;98685.22;7375014;19;19935;-69
2023/06/27 04:59:06;;;;;;;;;;;;;;;19.58;52.03;98680.84;7372454;19;20256;-69
2023/06/27 05:01:32;;;;;;;;;;;;;;;19.52;51.78;98684.38;7370625;19;19919;-69
2023/06/27 05:04:04;;;;;;;;;;;;;;;19.54;52.62;98695.75;7372867;19;20265;-69
2023/06/27 05:06:32;;;;;;;;;;;;;;;19.62;51.96;98692.03;7371034;19;19958;-70
2023/06/27 05:08:58;;;;;;;;;;;;;;;19.70;52.39;98690.00;7369194;19;19922;-69
2023/06/27 05:11:25;;;;;;;;;;;;;;;19.74;51.46;98690.38;7373674;19;20249;-70
2023/06/27 05:13:53;;;;;;;;;;;;;;;19.82;51.21;98690.16;7370456;19;20277;-69
2023/06/27 05:16:20;;;;;;;;;;;;;;;19.80;52.64;98686.91;7369040;19;19922;-70
2023/06/27 05:18:46;;;;;;;;;;;;;;;19.91;51.35;98688.13;7372072;19;19926;-69
2023/06/27 05:21:13;;;;;;;;;;;;;;;19.99;51.32;98681.72;7375057;19;19915;-69
2023/06/27 05:23:40;;;;;;;;;;;;;;;20.06;50.65;98687.88;7370444;19;19918;-69
2023/06/27 05:26:06;;;;;;;;;;;;;;;20.12;50.64;98689.75;7368107;19;19919;-70
2023/06/27 05:28:33;;;;;;;;;;;;;;;20.14;50.50;98687.66;7373925;19;19915;-70
2023/06/27 05:31:00;;;;;;;;;;;;;;;20.14;51.97;98687.66;7367063;19;19922;-69
2023/06/27 05:33:27;;;;;;;;;;;;;;;20.27;50.62;98693.00;7374574;19;19922;-69
2023/06/27 05:35:53;;;;;;;;;;;;;;;20.27;50.74;98693.00;7365014;19;20313;-70
2023/06/27 05:38:20;;;;;;;;;;;;;;;20.29;51.69;98698.16;7373702;19;20353;-70
2023/06/27 05:40:47;;;;;;;;;;;;;;;20.36;49.95;98697.13;7370215;19;21058;-70
2023/06/27 05:43:13;;;;;;;;;;;;;;;20.46;49.91;98699.38;7373567;19;20016;-69
2023/06/27 05:45:40;;;;;;;;;;;;;;;20.47;49.51;98700.19;7369055;19;19915;-69
2023/06/27 05:48:08;;;;;;;;;;;;;;;20.57;49.88;98693.38;7374228;19;19923;-69
2023/06/27 05:50:35;;;;;;;;;;;;;;;20.65;49.24;98694.19;7370917;19;19919;-70
2023/06/27 05:53:02;;;;;;;;;;;;;;;20.55;49.57;98708.06;7371314;19;19925;-70
2023/06/27 05:55:29;;;;;;;;;;;;;;;20.73;49.40;98702.00;7367747;19;19988;-70
2023/06/27 05:57:55;;;;;;;;;;;;;;;20.77;49.21;98700.50;7368870;19;19923;-69
2023/06/27 06:00:22;;;;;;;;;;;;;;;20.75;48.59;98708.00;7371027;19;19929;-69
2023/06/27 06:02:49;;;;;;;;;;;;;;;20.77;47.98;98708.59;7366591;19;19919;-69
2023/06/27 06:05:17;;;;;;;;;;;;;;;20.80;49.13;98700.94;7367749;19;21176;-70
2023/06/27 06:07:44;;;;;;;;;;;;;;;21.00;47.23;98700.00;7368567;19;19922;-70
2023/06/27 06:10:11;;;;;;;;;;;;;;;21.08;48.00;98696.25;7371673;19;20051;-69
2023/06/27 06:12:38;;;;;;;;;;;;;;;21.04;47.89;98696.66;7368146;19;19921;-69
2023/06/27 06:15:05;;;;;;;;;;;;;;;21.15;47.36;98705.09;7361968;19;20289;-69
2023/06/27 06:17:31;;;;;;;;;;;;;;;21.18;46.88;98707.34;7362241;19;19938;-70
2023/06/27 06:19:58;;;;;;;;;;;;;;;21.34;47.75;98695.25;7367109;19;19922;-69
2023/06/27 06:22:25;;;;;;;;;;;;;;;21.20;47.59;98697.22;7368108;19;19958;-70
2023/06/27 06:24:51;;;;;;;;;;;;;;;21.46;45.11;98694.38;7363423;19;19922;-69
2023/06/27 06:27:18;;;;;;;;;;;;;;;21.38;47.03;98697.31;7370241;19;19953;-69
2023/06/27 06:29:45;;;;;;;;;;;;;;;21.33;46.50;98698.97;7361593;19;19918;-69
2023/06/27 06:32:12;;;;;;;;;;;;;;;21.35;45.82;98713.03;7370227;19;20333;-69
2023/06/27 06:34:38;;;;;;;;;;;;;;;21.35;46.62;98697.72;7368034;19;19915;-69
2023/06/27 06:37:05;;;;;;;;;;;;;;;21.32;47.00;98703.53;7367886;19;20325;-69
2023/06/27 06:39:32;;;;;;;;;;;;;;;21.26;46.40;98704.41;7370705;19;19918;-70
2023/06/27 06:41:59;;;;;;;;;;;;;;;21.44;45.19;98704.53;7370497;19;20008;-70
2023/06/27 06:44:26;;;;;;;;;;;;;;;21.65;44.68;98713.28;7370723;19;19915;-69
2023/06/27 06:46:53;;;;;;;;;;;;;;;21.69;43.68;98707.22;7364939;19;19928;-69
2023/06/27 06:49:19;;;;;;;;;;;;;;;21.71;43.40;98709.72;7369908;19;20009;-69
2023/06/27 06:51:46;;;;;;;;;;;;;;;21.90;43.75;98707.88;7360714;19;19926;-70
2023/06/27 06:54:13;;;;;;;;;;;;;;;21.88;42.70;98705.44;7370974;19;19929;-70
2023/06/27 06:56:39;;;;;;;;;;;;;;;21.97;41.27;98700.56;7367557;19;20573;-73
2023/06/27 06:59:06;;;;;;;;;;;;;;;21.93;41.48;98715.53;7374330;19;20347;-71
2023/06/27 07:01:33;;;;;;;;;;;;;;;21.88;42.45;98715.34;7370076;19;19923;-72
2023/06/27 07:03:59;;;;;;;;;;;;;;;21.87;42.59;98717.22;7368633;19;19922;-71
2023/06/27 07:06:28;;;;;;;;;;;;;;;22.00;43.03;98710.91;7365626;19;20490;-70
2023/06/27 07:08:55;;;;;;;;;;;;;;;22.10;42.36;98715.78;7364582;19;19941;-71
2023/06/27 07:11:22;;;;;;;;;;;;;;;22.08;43.06;98715.19;7372323;19;19925;-70
2023/06/27 07:13:48;;;;;;;;;;;;;;;22.20;41.84;98710.75;7368494;19;19976;-70
2023/06/27 07:16:15;;;;;;;;;;;;;;;22.15;42.88;98713.25;7370912;19;19943;-70
2023/06/27 07:18:44;;;;;;;;;;;;;;;22.18;42.96;98718.19;7357007;19;19927;-71
2023/06/27 07:21:11;;;;;;;;;;;;;;;22.40;40.13;98710.53;7371005;19;19933;-70
2023/06/27 07:23:37;;;;;;;;;;;;;;;22.47;41.38;98714.00;7364930;19;19942;-70
2023/06/27 07:26:04;;;;;;;;;;;;;;;22.42;40.85;98694.97;7359356;19;19918;-72
2023/06/27 07:28:31;;;;;;;;;;;;;;;22.43;40.25;98709.25;7364803;19;19919;-70
2023/06/27 07:30:57;;;;;;;;;;;;;;;22.55;41.05;98707.47;7363538;19;19919;-71
2023/06/27 07:33:24;;;;;;;;;;;;;;;22.89;40.68;98699.81;7371730;19;19969;-73
2023/06/27 07:35:52;;;;;;;;;;;;;;;22.91;38.94;98703.09;7365265;19;20275;-70
2023/06/27 07:38:18;;;;;;;;;;;;;;;22.79;41.14;98703.84;7368735;19;19918;-69
2023/06/27 07:40:45;;;;;;;;;;;;;;;22.83;39.31;98703.41;7365729;19;20391;-71
2023/06/27 07:43:12;;;;;;;;;;;;;;;22.90;39.12;98704.16;7371823;19;19922;-70
2023/06/27 07:45:39;;;;;;;;;;;;;;;22.90;40.58;98698.75;7368815;19;19942;-70
2023/06/27 07:48:06;;;;;;;;;;;;;;;23.02;38.88;98699.66;7369089;19;20824;-70
2023/06/27 07:50:32;;;;;;;;;;;;;;;23.05;40.46;98706.47;7371071;19;19919;-71
2023/06/27 07:52:59;;;;;;;;;;;;;;;23.07;40.12;98707.09;7370200;19;19922;-70
2023/06/27 07:55:26;;;;;;;;;;;;;;;23.05;39.71;98703.78;7367970;19;20379;-71
2023/06/27 07:57:53;;;;;;;;;;;;;;;23.06;38.80;98703.53;7366587;19;19911;-71
2023/06/27 08:00:20;;;;;;;;;;;;;;;23.04;39.65;98707.50;7374360;19;19923;-70
2023/06/27 08:02:46;;;;;;;;;;;;;;;22.75;39.16;98713.47;7364639;19;19936;-72
2023/06/27 08:05:13;;;;;;;;;;;;;;;23.22;39.63;98713.72;7374596;19;21271;-70
2023/06/27 08:07:40;;;;;;;;;;;;;;;23.41;38.26;98711.78;7374427;19;19960;-72
2023/06/27 08:10:07;;;;;;;;;;;;;;;23.61;38.96;98703.34;7373076;19;19911;-71
2023/06/27 08:12:34;;;;;;;;;;;;;;;23.81;39.34;98697.66;7373859;19;19923;-70
2023/06/27 08:15:01;;;;;;;;;;;;;;;23.83;38.12;98694.75;7373610;19;19919;-71
2023/06/27 08:17:27;;;;;;;;;;;;;;;23.90;37.21;98690.03;7378314;19;19922;-72
2023/06/27 08:19:54;;;;;;;;;;;;;;;23.94;38.54;98693.09;7375228;19;19919;-70
2023/06/27 08:22:21;;;;;;;;;;;;;;;24.13;36.39;98689.22;7377792;19;19922;-70
2023/06/27 08:24:47;;;;;;;;;;;;;;;24.13;36.79;98686.50;7369834;19;22103;-71
2023/06/27 08:27:14;;;;;;;;;;;;;;;24.13;37.82;98686.50;7377118;19;20257;-70
2023/06/27 08:29:41;;;;;;;;;;;;;;;24.08;36.35;98673.69;7373361;19;20265;-71
2023/06/27 08:32:08;;;;;;;;;;;;;;;24.05;38.15;98679.56;7373800;19;19925;-71
2023/06/27 08:34:38;;;;;;;;;;;;;;;24.12;38.34;98670.50;7376320;19;19978;-71
2023/06/27 08:37:05;;;;;;;;;;;;;;;24.23;38.55;98672.41;7373352;19;19926;-70
2023/06/27 08:39:32;;;;;;;;;;;;;;;24.26;36.65;98674.63;7375372;19;19978;-70
2023/06/27 08:41:59;;;;;;;;;;;;;;;24.41;36.57;98672.25;7376002;19;19919;-72
2023/06/27 08:44:25;;;;;;;;;;;;;;;24.23;36.51;98664.28;7376373;19;19919;-70
2023/06/27 08:46:52;;;;;;;;;;;;;;;24.34;35.46;98668.84;7373058;19;20369;-70
2023/06/27 08:49:22;;;;;;;;;;;;;;;24.55;36.38;98663.91;7377439;19;20391;-71
2023/06/27 08:51:53;;;;;;;;;;;;;;;24.40;38.13;98659.78;7368922;19;21749;-70
2023/06/27 08:54:34;;;;;;;;;;;;;;;24.36;36.29;98661.34;7376179;19;19923;-71
2023/06/27 08:57:02;;;;;;;;;;;;;;;24.39;36.71;98660.84;7371641;19;19962;-71
2023/06/27 08:59:30;;;;;;;;;;;;;;;24.25;36.88;98659.44;7373589;19;19932;-71
2023/06/27 09:01:57;;;;;;;;;;;;;;;24.40;38.14;98659.78;7366224;19;19918;-72
2023/06/27 09:04:23;;;;;;;;;;;;;;;24.49;35.02;98661.09;7371134;19;19968;-71
2023/06/27 09:06:50;;;;;;;;;;;;;;;24.81;34.71;98654.41;7369005;19;19937;-70
2023/06/27 09:09:17;;;;;;;;;;;;;;;24.86;34.39;98663.44;7370401;19;19922;-70
2023/06/27 09:11:44;;;;;;;;;;;;;;;24.53;35.38;98669.53;7372808;19;19921;-70
2023/06/27 09:14:10;;;;;;;;;;;;;;;24.18;37.14;98656.88;7371522;19;19918;-71
2023/06/27 09:16:37;;;;;;;;;;;;;;;24.23;36.71;98653.47;7371382;19;19926;-71
2023/06/27 09:19:04;;;;;;;;;;;;;;;24.25;36.78;98649.47;7370600;19;20347;-71
2023/06/27 09:21:34;;;;;;;;;;;;;;;24.54;35.89;98638.75;7372692;19;19919;-71
2023/06/27 09:24:07;;;;;;;;;;;;;;;24.45;36.05;98645.56;7368228;19;19938;-70
2023/06/27 09:26:34;;;;;;;;;;;;;;;24.94;33.96;98649.53;7367109;19;19919;-70
2023/06/27 09:29:00;;;;;;;;;;;;;;;25.20;34.83;98636.50;7369489;19;21124;-70
2023/06/27 09:31:28;;;;;;;;;;;;;;;25.70;33.60;98646.53;7374057;19;19923;-71
2023/06/27 09:34:05;;;;;;;;;;;;;;;25.98;33.90;98642.06;7370434;19;19919;-71
2023/06/27 09:36:36;;;;;;;;;;;;;;;25.78;33.18;98635.25;7367835;19;19922;-70
2023/06/27 09:39:07;;;;;;;;;;;;;;;25.67;34.35;98641.56;7367543;19;19921;-70
2023/06/27 09:41:40;;;;;;;;;;;;;;;25.63;32.83;98640.44;7374468;19;20026;-70
2023/06/27 09:44:10;;;;;;;;;;;;;;;25.27;33.40;98647.97;7368483;19;21631;-70
2023/06/27 09:46:36;;;;;;;;;;;;;;;25.13;33.50;98652.03;7369965;19;19934;-71
2023/06/27 09:49:05;;;;;;;;;;;;;;;25.18;32.66;98652.16;7371136;19;19927;-70
2023/06/27 09:51:32;;;;;;;;;;;;;;;25.17;34.58;98653.19;7370524;19;19915;-70
2023/06/27 09:53:59;;;;;;;;;;;;;;;25.43;34.28;98648.22;7369298;19;19930;-71
2023/06/27 09:56:30;;;;;;;;;;;;;;;25.24;34.43;98637.63;7372815;19;19921;-70
2023/06/27 09:58:57;;;;;;;;;;;;;;;25.50;33.99;98638.06;7368013;19;19922;-71
2023/06/27 10:01:44;;;;;;;;;;;;;;;25.83;34.08;98638.06;7371027;19;19923;-70
2023/06/27 10:04:11;;;;;;;;;;;;;;;25.74;32.65;98638.72;7370431;19;19923;-70
2023/06/27 10:06:41;;;;;;;;;;;;;;;25.47;32.62;98638.56;7369934;19;19919;-70
2023/06/27 10:09:08;;;;;;;;;;;;;;;25.39;33.56;98637.88;7369845;19;19915;-71
2023/06/27 10:11:35;;;;;;;;;;;;;;;25.32;34.13;98642.63;7370321;19;20327;-70
2023/06/27 10:14:03;;;;;;;;;;;;;;;25.41;33.21;98645.78;7367027;19;19926;-70
2023/06/27 10:16:30;;;;;;;;;;;;;;;25.53;34.38;98634.84;7368565;19;19919;-70
2023/06/27 10:18:57;;;;;;;;;;;;;;;25.68;32.35;98637.81;7365757;19;19921;-71
2023/06/27 10:21:24;;;;;;;;;;;;;;;25.69;31.64;98642.16;7372260;19;20550;-72
2023/06/27 10:23:51;;;;;;;;;;;;;;;25.66;34.70;98639.94;7367212;19;19927;-71
2023/06/27 10:26:19;;;;;;;;;;;;;;;25.97;31.72;98630.41;7369255;19;19930;-70
2023/06/27 10:28:49;;;;;;;;;;;;;;;26.04;33.20;98633.78;7370183;19;19922;-70
2023/06/27 10:31:34;;;;;;;;;;;;;;;26.12;32.96;98640.66;7375052;19;19915;-70
2023/06/27 10:34:01;;;;;;;;;;;;;;;26.18;32.78;98630.69;7368721;19;19921;-72
2023/06/27 10:36:48;;;;;;;;;;;;;;;26.26;32.17;98627.53;7369164;19;19983;-71
2023/06/27 10:39:33;;;;;;;;;;;;;;;26.17;31.75;98632.59;7374495;19;19923;-70
2023/06/27 10:42:04;;;;;;;;;;;;;;;26.42;31.46;98639.41;7368678;19;19923;-70
2023/06/27 10:44:31;;;;;;;;;;;;;;;26.55;32.63;98630.91;7368292;19;20355;-71
2023/06/27 10:47:29;;;;;;;;;;;;;;;26.51;32.45;98640.59;7370074;19;19919;-71
2023/06/27 10:50:04;;;;;;;;;;;;;;;26.37;31.32;98642.88;7365651;19;21130;-71
2023/06/27 10:52:31;;;;;;;;;;;;;;;26.43;31.75;98646.47;7368645;19;19929;-70
2023/06/27 10:55:13;;;;;;;;;;;;;;;26.28;31.73;98636.25;7368418;19;19994;-70
2023/06/27 10:57:43;;;;;;;;;;;;;;;26.43;29.96;98641.84;7364394;19;20348;-70
2023/06/27 11:00:13;;;;;;;;;;;;;;;26.13;31.56;98646.91;7364846;19;21291;-71
2023/06/27 11:02:43;;;;;;;;;;;;;;;26.10;31.35;98642.78;7368678;19;19927;-70
2023/06/27 11:05:15;;;;;;;;;;;;;;;26.01;31.22;98647.84;7366500;19;20523;-70
2023/06/27 11:07:52;;;;;;;;;;;;;;;25.80;32.26;98648.53;7366129;19;20536;-71
2023/06/27 11:10:23;;;;;;;;;;;;;;;25.81;32.98;98647.50;7370455;19;19927;-70
2023/06/27 11:12:51;;;;;;;;;;;;;;;25.97;30.44;98646.69;7369095;19;19915;-71
2023/06/27 11:15:17;;;;;;;;;;;;;;;25.88;30.62;98634.59;7367684;19;19933;-70
2023/06/27 11:17:44;;;;;;;;;;;;;;;25.92;32.45;98643.06;7368610;19;19923;-71
2023/06/27 11:20:12;;;;;;;;;;;;;;;26.12;31.41;98643.38;7368427;19;19919;-71
2023/06/27 11:22:38;;;;;;;;;;;;;;;26.00;31.16;98640.75;7368689;19;19926;-71
2023/06/27 11:25:14;;;;;;;;;;;;;;;26.10;31.27;98645.50;7363750;19;19927;-70
2023/06/27 11:27:41;;;;;;;;;;;;;;;26.27;32.16;98637.31;7367190;19;19918;-71
2023/06/27 11:30:08;;;;;;;;;;;;;;;26.30;31.63;98644.94;7367163;19;19926;-71
2023/06/27 11:32:36;;;;;;;;;;;;;;;26.25;29.82;98632.16;7364628;19;19953;-71
2023/06/27 11:35:07;;;;;;;;;;;;;;;26.20;30.03;98634.81;7362728;19;20287;-71
2023/06/27 11:37:34;;;;;;;;;;;;;;;26.41;29.95;98624.19;7370512;19;20346;-70
2023/06/27 11:40:07;;;;;;;;;;;;;;;26.40;30.90;98619.84;7371303;19;19918;-71
2023/06/27 11:42:34;;;;;;;;;;;;;;;26.42;30.79;98623.94;7376527;19;19923;-71
2023/06/27 11:45:02;;;;;;;;;;;;;;;25.83;30.87;98619.06;7369849;19;19919;-72
2023/06/27 11:47:29;;;;;;;;;;;;;;;26.11;31.46;98619.22;7379094;19;19926;-70
2023/06/27 11:50:08;;;;;;;;;;;;;;;26.13;31.22;98617.88;7370442;19;19911;-70
2023/06/27 11:52:35;;;;;;;;;;;;;;;26.54;31.32;98607.59;7374678;19;19919;-70
2023/06/27 11:55:04;;;;;;;;;;;;;;;26.43;31.72;98614.72;7368417;19;19915;-71
2023/06/27 11:57:40;;;;;;;;;;;;;;;26.69;31.62;98599.59;7373431;19;19922;-70
2023/06/27 12:00:12;;;;;;;;;;;;;;;26.71;31.33;98597.44;7373783;19;19923;-71
2023/06/27 12:02:38;;;;;;;;;;;;;;;26.79;29.68;98598.88;7377867;19;19922;-71
2023/06/27 12:05:11;;;;;;;;;;;;;;;26.96;30.28;98595.25;7371803;19;19927;-71
2023/06/27 12:07:38;;;;;;;;;;;;;;;27.04;28.86;98583.91;7375080;19;19994;-70
2023/06/27 12:10:05;;;;;;;;;;;;;;;26.65;29.75;98589.53;7372800;19;19917;-71
2023/06/27 12:12:38;;;;;;;;;;;;;;;26.59;29.83;98583.19;7379314;19;19915;-70
2023/06/27 12:15:09;;;;;;;;;;;;;;;26.86;28.32;98576.97;7369447;19;21169;-70
2023/06/27 12:17:36;;;;;;;;;;;;;;;26.78;29.51;98577.41;7377451;19;19953;-71
2023/06/27 12:20:05;;;;;;;;;;;;;;;26.58;31.21;98580.75;7374902;19;19957;-70
2023/06/27 12:22:32;;;;;;;;;;;;;;;26.73;30.66;98577.38;7367513;19;20327;-70
2023/06/27 12:24:59;;;;;;;;;;;;;;;26.76;30.97;98582.31;7367432;19;19919;-70
2023/06/27 12:27:25;;;;;;;;;;;;;;;26.75;29.26;98569.78;7377688;19;19938;-70
2023/06/27 12:29:52;;;;;;;;;;;;;;;26.64;31.06;98569.69;7372778;19;20651;-70
2023/06/27 12:32:19;;;;;;;;;;;;;;;26.58;30.94;98570.72;7373310;19;19929;-71
2023/06/27 12:34:46;;;;;;;;;;;;;;;26.64;29.15;98558.81;7373711;19;19926;-70
2023/06/27 12:37:12;;;;;;;;;;;;;;;26.44;30.06;98564.03;7373936;19;19922;-71
2023/06/27 12:39:39;;;;;;;;;;;;;;;26.89;31.51;98555.56;7373914;19;19930;-70
2023/06/27 12:42:06;;;;;;;;;;;;;;;27.15;28.65;98553.88;7371601;19;20795;-71
2023/06/27 13:40:31;;;;;;;;;;;;;;;27.05;29.13;98504.09;7318883;19;19918;-69
2023/06/27 14:20:13;;;;;;;;;;;;;;;27.18;26.99;98487.38;7321382;19;20008;-70
2023/06/27 14:22:40;;;;;;;;;;;;;;;27.04;26.07;98473.41;7354468;19;19919;-69
2023/06/27 14:25:07;;;;;;;;;;;;;;;27.10;27.17;98469.66;7349533;19;19926;-70